sensor_id;sensor_type;location;lat;lon;timestamp;pressure;altitude;pressure_sealevel;temperature;humidity
45345;BME280;31078;48.304;11.896;2023-04-25T00:00:51;95652.59;;;7.35;73.87
45345;BME280;31078;48.304;11.896;2023-04-25T00:03:18;95655.63;;;7.33;74.15
45345;BME280;31078;48.304;11.896;2023-04-25T00:05:46;95652.16;;;7.42;74.16
45345;BME280;31078;48.304;11.896;2023-04-25T00:08:13;95663.16;;;7.45;74.67
45345;BME280;31078;48.304;11.896;2023-04-25T00:10:39;95658.38;;;7.42;74.64
45345;BME280;31078;48.304;11.896;2023-04-25T00:13:06;95658.03;;;7.35;75.34
45345;BME280;31078;48.304;11.896;2023-04-25T00:15:33;95662.19;;;7.41;75.28
45345;BME280;31078;48.304;11.896;2023-04-25T00:18:01;95659.94;;;7.35;75.76
45345;BME280;31078;48.304;11.896;2023-04-25T00:20:27;95656.44;;;7.34;75.98
45345;BME280;31078;48.304;11.896;2023-04-25T00:22:57;95656.44;;;7.34;76.20
45345;BME280;31078;48.304;11.896;2023-04-25T00:25:24;95645.59;;;7.34;76.62
45345;BME280;31078;48.304;11.896;2023-04-25T00:27:51;95647.38;;;7.39;76.47
45345;BME280;31078;48.304;11.896;2023-04-25T00:30:17;95649.00;;;7.48;77.10
45345;BME280;31078;48.304;11.896;2023-04-25T00:32:44;95643.44;;;7.53;77.41
45345;BME280;31078;48.304;11.896;2023-04-25T00:35:11;95643.59;;;7.57;77.05
45345;BME280;31078;48.304;11.896;2023-04-25T00:37:37;95656.03;;;7.58;76.90
45345;BME280;31078;48.304;11.896;2023-04-25T00:40:06;95655.84;;;7.54;77.00
45345;BME280;31078;48.304;11.896;2023-04-25T00:42:34;95652.00;;;7.38;77.63
45345;BME280;31078;48.304;11.896;2023-04-25T00:45:04;95658.66;;;7.32;77.99
45345;BME280;31078;48.304;11.896;2023-04-25T00:47:32;95654.09;;;7.01;80.17
45345;BME280;31078;48.304;11.896;2023-04-25T00:49:59;95648.59;;;6.84;81.35
45345;BME280;31078;48.304;11.896;2023-04-25T00:52:25;95647.63;;;6.80;82.17
45345;BME280;31078;48.304;11.896;2023-04-25T00:54:52;95643.19;;;6.84;81.99
45345;BME280;31078;48.304;11.896;2023-04-25T00:57:19;95651.00;;;6.86;81.90
45345;BME280;31078;48.304;11.896;2023-04-25T00:59:46;95648.47;;;6.89;82.10
45345;BME280;31078;48.304;11.896;2023-04-25T01:02:12;95636.59;;;7.07;81.30
45345;BME280;31078;48.304;11.896;2023-04-25T01:04:39;95626.03;;;6.97;81.53
45345;BME280;31078;48.304;11.896;2023-04-25T01:07:06;95627.13;;;6.88;82.11
45345;BME280;31078;48.304;11.896;2023-04-25T01:09:33;95635.81;;;6.76;82.36
45345;BME280;31078;48.304;11.896;2023-04-25T01:12:00;95640.88;;;6.69;83.18
45345;BME280;31078;48.304;11.896;2023-04-25T01:14:28;95644.31;;;6.61;84.39
45345;BME280;31078;48.304;11.896;2023-04-25T01:16:55;95639.53;;;6.58;84.09
45345;BME280;31078;48.304;11.896;2023-04-25T01:19:22;95639.19;;;6.50;84.55
45345;BME280;31078;48.304;11.896;2023-04-25T01:21:51;95636.81;;;6.58;84.82
45345;BME280;31078;48.304;11.896;2023-04-25T01:24:18;95641.28;;;6.53;84.66
45345;BME280;31078;48.304;11.896;2023-04-25T01:26:45;95636.97;;;6.52;84.85
45345;BME280;31078;48.304;11.896;2023-04-25T01:29:15;95640.16;;;6.54;84.80
45345;BME280;31078;48.304;11.896;2023-04-25T01:31:41;95635.53;;;6.55;85.02
45345;BME280;31078;48.304;11.896;2023-04-25T01:34:08;95636.22;;;6.61;84.35
45345;BME280;31078;48.304;11.896;2023-04-25T01:36:35;95634.03;;;6.71;84.20
45345;BME280;31078;48.304;11.896;2023-04-25T01:39:03;95637.84;;;6.70;83.69
45345;BME280;31078;48.304;11.896;2023-04-25T01:41:29;95629.78;;;6.79;83.55
45345;BME280;31078;48.304;11.896;2023-04-25T01:43:56;95628.53;;;6.85;83.33
45345;BME280;31078;48.304;11.896;2023-04-25T01:46:23;95629.94;;;6.83;82.71
45345;BME280;31078;48.304;11.896;2023-04-25T01:48:50;95629.47;;;6.80;83.22
45345;BME280;31078;48.304;11.896;2023-04-25T01:51:16;95627.09;;;6.79;82.52
45345;BME280;31078;48.304;11.896;2023-04-25T01:53:43;95632.09;;;6.94;82.02
45345;BME280;31078;48.304;11.896;2023-04-25T01:56:11;95632.09;;;6.94;81.73
45345;BME280;31078;48.304;11.896;2023-04-25T01:58:38;95630.75;;;6.83;81.87
45345;BME280;31078;48.304;11.896;2023-04-25T02:01:04;95622.75;;;6.78;82.31
45345;BME280;31078;48.304;11.896;2023-04-25T02:03:31;95624.28;;;6.93;81.76
45345;BME280;31078;48.304;11.896;2023-04-25T02:05:58;95624.44;;;6.96;81.37
45345;BME280;31078;48.304;11.896;2023-04-25T02:08:25;95621.09;;;6.99;81.53
45345;BME280;31078;48.304;11.896;2023-04-25T02:10:51;95620.00;;;7.00;81.95
45345;BME280;31078;48.304;11.896;2023-04-25T02:13:19;95627.03;;;7.01;82.62
45345;BME280;31078;48.304;11.896;2023-04-25T02:15:46;95618.91;;;7.01;82.28
45345;BME280;31078;48.304;11.896;2023-04-25T02:18:12;95618.41;;;6.99;82.28
45345;BME280;31078;48.304;11.896;2023-04-25T02:20:41;95618.41;;;6.99;82.67
45345;BME280;31078;48.304;11.896;2023-04-25T02:23:07;95623.81;;;6.99;83.15
45345;BME280;31078;48.304;11.896;2023-04-25T02:25:34;95626.50;;;6.99;83.16
45345;BME280;31078;48.304;11.896;2023-04-25T02:28:00;95615.41;;;7.01;82.88
45345;BME280;31078;48.304;11.896;2023-04-25T02:30:28;95612.38;;;7.02;83.07
45345;BME280;31078;48.304;11.896;2023-04-25T02:32:55;95612.38;;;7.02;83.10
45345;BME280;31078;48.304;11.896;2023-04-25T02:35:21;95612.19;;;6.99;83.13
45345;BME280;31078;48.304;11.896;2023-04-25T02:37:48;95599.78;;;6.98;83.02
45345;BME280;31078;48.304;11.896;2023-04-25T02:40:14;95595.16;;;6.98;82.99
45345;BME280;31078;48.304;11.896;2023-04-25T02:42:41;95602.78;;;6.96;83.05
45345;BME280;31078;48.304;11.896;2023-04-25T02:45:08;95603.41;;;6.93;83.25
45345;BME280;31078;48.304;11.896;2023-04-25T02:47:36;95599.91;;;6.93;83.16
45345;BME280;31078;48.304;11.896;2023-04-25T02:50:04;95599.63;;;6.94;82.75
45345;BME280;31078;48.304;11.896;2023-04-25T02:52:30;95603.59;;;6.97;83.26
45345;BME280;31078;48.304;11.896;2023-04-25T02:54:57;95604.38;;;6.97;83.54
45345;BME280;31078;48.304;11.896;2023-04-25T02:57:23;95605.03;;;6.94;83.45
45345;BME280;31078;48.304;11.896;2023-04-25T02:59:50;95602.09;;;6.82;82.84
45345;BME280;31078;48.304;11.896;2023-04-25T03:02:16;95597.59;;;6.69;82.41
45345;BME280;31078;48.304;11.896;2023-04-25T03:04:44;95592.72;;;6.79;82.38
45345;BME280;31078;48.304;11.896;2023-04-25T03:07:11;95586.50;;;6.88;81.73
45345;BME280;31078;48.304;11.896;2023-04-25T03:09:37;95583.38;;;6.94;81.55
45345;BME280;31078;48.304;11.896;2023-04-25T03:12:04;95590.25;;;7.00;82.18
45345;BME280;31078;48.304;11.896;2023-04-25T03:14:31;95594.03;;;6.99;82.38
45345;BME280;31078;48.304;11.896;2023-04-25T03:16:57;95594.72;;;7.05;81.64
45345;BME280;31078;48.304;11.896;2023-04-25T03:19:23;95588.84;;;7.12;81.35
45345;BME280;31078;48.304;11.896;2023-04-25T03:21:51;95579.59;;;7.13;81.13
45345;BME280;31078;48.304;11.896;2023-04-25T03:24:18;95581.53;;;7.21;80.18
45345;BME280;31078;48.304;11.896;2023-04-25T03:26:45;95575.31;;;7.20;80.76
45345;BME280;31078;48.304;11.896;2023-04-25T03:29:12;95585.84;;;7.22;80.56
45345;BME280;31078;48.304;11.896;2023-04-25T03:31:38;95585.03;;;7.21;80.48
45345;BME280;31078;48.304;11.896;2023-04-25T03:34:05;95589.41;;;6.91;79.63
45345;BME280;31078;48.304;11.896;2023-04-25T03:36:31;95587.81;;;6.90;79.56
45345;BME280;31078;48.304;11.896;2023-04-25T03:38:59;95576.47;;;6.79;79.51
45345;BME280;31078;48.304;11.896;2023-04-25T03:41:25;95585.34;;;6.71;80.28
45345;BME280;31078;48.304;11.896;2023-04-25T03:43:52;95584.72;;;6.74;80.16
45345;BME280;31078;48.304;11.896;2023-04-25T03:46:19;95584.88;;;6.69;80.54
45345;BME280;31078;48.304;11.896;2023-04-25T03:48:45;95585.00;;;6.64;80.54
45345;BME280;31078;48.304;11.896;2023-04-25T03:51:12;95587.84;;;6.68;80.99
45345;BME280;31078;48.304;11.896;2023-04-25T03:53:38;95592.19;;;6.69;82.13
45345;BME280;31078;48.304;11.896;2023-04-25T03:56:06;95582.88;;;6.52;83.15
45345;BME280;31078;48.304;11.896;2023-04-25T03:58:33;95589.91;;;6.31;84.93
45345;BME280;31078;48.304;11.896;2023-04-25T04:00:59;95588.16;;;6.26;85.64
45345;BME280;31078;48.304;11.896;2023-04-25T04:03:28;95589.22;;;6.25;87.72
45345;BME280;31078;48.304;11.896;2023-04-25T04:05:54;95594.28;;;6.18;88.23
45345;BME280;31078;48.304;11.896;2023-04-25T04:08:21;95589.06;;;6.22;88.28
45345;BME280;31078;48.304;11.896;2023-04-25T04:10:47;95593.38;;;6.23;88.09
45345;BME280;31078;48.304;11.896;2023-04-25T04:13:15;95579.47;;;6.16;86.99
45345;BME280;31078;48.304;11.896;2023-04-25T04:15:41;95582.53;;;6.23;87.46
45345;BME280;31078;48.304;11.896;2023-04-25T04:18:08;95579.47;;;6.16;87.30
45345;BME280;31078;48.304;11.896;2023-04-25T04:20:34;95588.69;;;6.15;87.48
45345;BME280;31078;48.304;11.896;2023-04-25T04:23:01;95596.09;;;6.32;86.88
45345;BME280;31078;48.304;11.896;2023-04-25T04:25:28;95589.06;;;6.22;87.00
45345;BME280;31078;48.304;11.896;2023-04-25T04:27:55;95596.06;;;6.23;86.61
45345;BME280;31078;48.304;11.896;2023-04-25T04:30:23;95592.25;;;6.24;86.97
45345;BME280;31078;48.304;11.896;2023-04-25T04:32:50;95588.69;;;6.37;85.68
45345;BME280;31078;48.304;11.896;2023-04-25T04:35:17;95586.84;;;6.24;85.73
45345;BME280;31078;48.304;11.896;2023-04-25T04:37:43;95580.81;;;6.27;85.60
45345;BME280;31078;48.304;11.896;2023-04-25T04:40:11;95598.00;;;6.31;84.23
45345;BME280;31078;48.304;11.896;2023-04-25T04:42:40;95590.03;;;6.26;86.91
45345;BME280;31078;48.304;11.896;2023-04-25T04:45:07;95587.22;;;6.09;88.49
45345;BME280;31078;48.304;11.896;2023-04-25T04:47:35;95583.78;;;5.94;89.62
45345;BME280;31078;48.304;11.896;2023-04-25T04:50:02;95585.59;;;5.85;91.31
45345;BME280;31078;48.304;11.896;2023-04-25T04:52:29;95585.59;;;5.85;92.58
45345;BME280;31078;48.304;11.896;2023-04-25T04:54:55;95598.13;;;5.81;93.58
45345;BME280;31078;48.304;11.896;2023-04-25T04:57:22;95595.78;;;5.88;93.73
45345;BME280;31078;48.304;11.896;2023-04-25T04:59:48;95589.81;;;5.78;92.39
45345;BME280;31078;48.304;11.896;2023-04-25T05:02:15;95584.22;;;5.74;92.40
45345;BME280;31078;48.304;11.896;2023-04-25T05:04:43;95583.63;;;5.77;92.94
45345;BME280;31078;48.304;11.896;2023-04-25T05:07:10;95600.19;;;5.84;92.07
45345;BME280;31078;48.304;11.896;2023-04-25T05:09:36;95592.59;;;5.86;91.71
45345;BME280;31078;48.304;11.896;2023-04-25T05:12:03;95595.78;;;5.88;90.94
45345;BME280;31078;48.304;11.896;2023-04-25T05:14:30;95589.97;;;5.95;89.18
45345;BME280;31078;48.304;11.896;2023-04-25T05:16:57;95597.28;;;5.94;88.86
45345;BME280;31078;48.304;11.896;2023-04-25T05:19:23;95591.16;;;6.03;87.77
45345;BME280;31078;48.304;11.896;2023-04-25T05:21:51;95579.75;;;6.06;87.02
45345;BME280;31078;48.304;11.896;2023-04-25T05:24:18;95577.19;;;6.09;85.76
45345;BME280;31078;48.304;11.896;2023-04-25T05:26:44;95577.28;;;6.18;85.42
45345;BME280;31078;48.304;11.896;2023-04-25T05:29:11;95579.22;;;6.26;84.42
45345;BME280;31078;48.304;11.896;2023-04-25T05:31:38;95581.97;;;6.35;84.68
45345;BME280;31078;48.304;11.896;2023-04-25T05:34:04;95585.47;;;6.35;84.18
45345;BME280;31078;48.304;11.896;2023-04-25T05:36:30;95581.59;;;6.50;84.55
45345;BME280;31078;48.304;11.896;2023-04-25T05:38:59;95574.13;;;6.56;85.83
45345;BME280;31078;48.304;11.896;2023-04-25T05:41:25;95571.94;;;6.66;84.97
45345;BME280;31078;48.304;11.896;2023-04-25T05:43:52;95576.22;;;6.59;83.67
45345;BME280;31078;48.304;11.896;2023-04-25T05:46:18;95575.84;;;6.51;82.65
45345;BME280;31078;48.304;11.896;2023-04-25T05:48:45;95577.47;;;6.52;83.01
45345;BME280;31078;48.304;11.896;2023-04-25T05:51:11;95583.97;;;6.51;82.66
45345;BME280;31078;48.304;11.896;2023-04-25T05:53:37;95578.44;;;6.57;82.91
45345;BME280;31078;48.304;11.896;2023-04-25T05:56:05;95578.75;;;6.55;83.24
45345;BME280;31078;48.304;11.896;2023-04-25T05:58:32;95579.59;;;6.64;82.35
45345;BME280;31078;48.304;11.896;2023-04-25T06:00:58;95582.81;;;6.75;82.60
45345;BME280;31078;48.304;11.896;2023-04-25T06:03:25;95585.34;;;6.71;82.13
45345;BME280;31078;48.304;11.896;2023-04-25T06:05:52;95582.50;;;6.76;82.76
45345;BME280;31078;48.304;11.896;2023-04-25T06:08:18;95583.47;;;6.80;83.17
45345;BME280;31078;48.304;11.896;2023-04-25T06:10:45;95585.69;;;6.78;82.73
45345;BME280;31078;48.304;11.896;2023-04-25T06:13:12;95583.94;;;6.83;83.31
45345;BME280;31078;48.304;11.896;2023-04-25T06:15:39;95585.69;;;6.78;82.04
45345;BME280;31078;48.304;11.896;2023-04-25T06:18:06;95585.84;;;6.82;82.36
45345;BME280;31078;48.304;11.896;2023-04-25T06:20:33;95591.31;;;6.99;83.53
45345;BME280;31078;48.304;11.896;2023-04-25T06:22:59;95588.44;;;6.87;83.12
45345;BME280;31078;48.304;11.896;2023-04-25T06:25:26;95598.28;;;6.83;82.57
45345;BME280;31078;48.304;11.896;2023-04-25T06:27:52;95595.69;;;6.78;83.92
45345;BME280;31078;48.304;11.896;2023-04-25T06:30:20;95593.19;;;6.82;83.99
45345;BME280;31078;48.304;11.896;2023-04-25T06:32:50;95595.28;;;6.53;83.23
45345;BME280;31078;48.304;11.896;2023-04-25T06:35:18;95601.34;;;6.28;87.07
45345;BME280;31078;48.304;11.896;2023-04-25T06:37:44;95595.22;;;5.91;90.89
45345;BME280;31078;48.304;11.896;2023-04-25T06:40:11;95604.88;;;5.70;94.44
45345;BME280;31078;48.304;11.896;2023-04-25T06:42:37;95600.34;;;5.43;96.59
45345;BME280;31078;48.304;11.896;2023-04-25T06:45:04;95599.03;;;5.40;97.33
45345;BME280;31078;48.304;11.896;2023-04-25T06:47:32;95594.25;;;5.10;98.08
45345;BME280;31078;48.304;11.896;2023-04-25T06:49:58;95605.47;;;4.89;100.00
45345;BME280;31078;48.304;11.896;2023-04-25T06:52:25;95594.97;;;4.74;100.00
45345;BME280;31078;48.304;11.896;2023-04-25T06:54:51;95602.19;;;4.65;100.00
45345;BME280;31078;48.304;11.896;2023-04-25T06:57:18;95609.34;;;4.69;100.00
45345;BME280;31078;48.304;11.896;2023-04-25T06:59:44;95613.94;;;4.69;100.00
45345;BME280;31078;48.304;11.896;2023-04-25T07:02:11;95612.34;;;4.68;100.00
45345;BME280;31078;48.304;11.896;2023-04-25T07:04:39;95615.47;;;4.75;100.00
45345;BME280;31078;48.304;11.896;2023-04-25T07:07:05;95607.75;;;4.68;100.00
45345;BME280;31078;48.304;11.896;2023-04-25T07:09:31;95611.25;;;4.69;100.00
45345;BME280;31078;48.304;11.896;2023-04-25T07:11:59;95608.44;;;4.74;100.00
45345;BME280;31078;48.304;11.896;2023-04-25T07:14:26;95609.56;;;4.73;100.00
45345;BME280;31078;48.304;11.896;2023-04-25T07:16:52;95608.75;;;4.72;100.00
45345;BME280;31078;48.304;11.896;2023-04-25T07:19:21;95605.19;;;4.91;100.00
45345;BME280;31078;48.304;11.896;2023-04-25T07:21:50;95608.69;;;4.91;100.00
45345;BME280;31078;48.304;11.896;2023-04-25T07:24:16;95613.34;;;5.00;100.00
45345;BME280;31078;48.304;11.896;2023-04-25T07:26:43;95613.56;;;5.17;100.00
45345;BME280;31078;48.304;11.896;2023-04-25T07:29:10;95609.16;;;5.21;100.00
45345;BME280;31078;48.304;11.896;2023-04-25T07:31:36;95604.75;;;5.25;100.00
45345;BME280;31078;48.304;11.896;2023-04-25T07:34:03;95602.72;;;5.31;100.00
45345;BME280;31078;48.304;11.896;2023-04-25T07:36:29;95599.63;;;5.37;100.00
45345;BME280;31078;48.304;11.896;2023-04-25T07:38:57;95607.09;;;5.54;100.00
45345;BME280;31078;48.304;11.896;2023-04-25T07:41:23;95600.09;;;5.53;100.00
45345;BME280;31078;48.304;11.896;2023-04-25T07:43:50;95593.28;;;5.56;100.00
45345;BME280;31078;48.304;11.896;2023-04-25T07:46:16;95599.81;;;5.77;100.00
45345;BME280;31078;48.304;11.896;2023-04-25T07:48:43;95602.78;;;5.89;100.00
45345;BME280;31078;48.304;11.896;2023-04-25T07:51:09;95597.03;;;6.05;100.00
45345;BME280;31078;48.304;11.896;2023-04-25T07:53:35;95603.69;;;5.98;100.00
45345;BME280;31078;48.304;11.896;2023-04-25T07:56:04;95599.06;;;5.99;100.00
45345;BME280;31078;48.304;11.896;2023-04-25T07:58:31;95598.16;;;6.04;100.00
45345;BME280;31078;48.304;11.896;2023-04-25T08:00:57;95598.16;;;6.04;100.00
45345;BME280;31078;48.304;11.896;2023-04-25T08:03:24;95591.09;;;6.16;100.00
45345;BME280;31078;48.304;11.896;2023-04-25T08:05:50;95590.72;;;6.09;100.00
45345;BME280;31078;48.304;11.896;2023-04-25T08:08:17;95591.44;;;6.23;100.00
45345;BME280;31078;48.304;11.896;2023-04-25T08:10:43;95601.34;;;6.28;100.00
45345;BME280;31078;48.304;11.896;2023-04-25T08:13:11;95602.69;;;6.39;100.00
45345;BME280;31078;48.304;11.896;2023-04-25T08:15:37;95593.78;;;6.70;100.00
45345;BME280;31078;48.304;11.896;2023-04-25T08:18:04;95596.34;;;6.75;100.00
45345;BME280;31078;48.304;11.896;2023-04-25T08:20:30;95594.47;;;6.84;95.08
45345;BME280;31078;48.304;11.896;2023-04-25T08:22:57;95603.03;;;7.17;97.64
45345;BME280;31078;48.304;11.896;2023-04-25T08:25:23;95597.84;;;8.07;87.83
45345;BME280;31078;48.304;11.896;2023-04-25T08:27:50;95587.59;;;9.33;80.26
45345;BME280;31078;48.304;11.896;2023-04-25T08:30:18;95589.09;;;10.80;78.92
45345;BME280;31078;48.304;11.896;2023-04-25T08:32:44;95591.59;;;10.85;75.69
45345;BME280;31078;48.304;11.896;2023-04-25T08:35:11;95595.63;;;11.12;77.01
45345;BME280;31078;48.304;11.896;2023-04-25T08:37:37;95592.22;;;11.52;68.63
45345;BME280;31078;48.304;11.896;2023-04-25T08:40:05;95592.69;;;11.54;71.18
45345;BME280;31078;48.304;11.896;2023-04-25T08:42:33;95589.94;;;11.54;69.62
45345;BME280;31078;48.304;11.896;2023-04-25T08:45:01;95597.88;;;11.71;69.15
45345;BME280;31078;48.304;11.896;2023-04-25T08:47:29;95597.44;;;12.22;66.59
45345;BME280;31078;48.304;11.896;2023-04-25T08:49:56;95595.13;;;11.96;73.60
45345;BME280;31078;48.304;11.896;2023-04-25T08:52:23;95598.16;;;12.63;71.22
45345;BME280;31078;48.304;11.896;2023-04-25T08:54:51;95594.84;;;12.41;66.29
45345;BME280;31078;48.304;11.896;2023-04-25T08:57:19;95593.56;;;11.70;63.55
45345;BME280;31078;48.304;11.896;2023-04-25T08:59:46;95591.50;;;10.82;69.59
45345;BME280;31078;48.304;11.896;2023-04-25T09:02:13;95586.75;;;10.45;70.55
45345;BME280;31078;48.304;11.896;2023-04-25T09:04:43;95580.09;;;10.55;70.29
45345;BME280;31078;48.304;11.896;2023-04-25T09:07:10;95579.41;;;10.46;74.17
45345;BME280;31078;48.304;11.896;2023-04-25T09:09:37;95582.94;;;10.26;72.21
45345;BME280;31078;48.304;11.896;2023-04-25T09:12:05;95577.47;;;9.92;75.23
45345;BME280;31078;48.304;11.896;2023-04-25T09:14:31;95584.09;;;9.83;74.09
45345;BME280;31078;48.304;11.896;2023-04-25T09:17:02;95575.59;;;9.63;75.48
45345;BME280;31078;48.304;11.896;2023-04-25T09:19:30;95578.06;;;9.27;72.89
45345;BME280;31078;48.304;11.896;2023-04-25T09:22:01;95584.22;;;9.06;74.76
45345;BME280;31078;48.304;11.896;2023-04-25T09:24:32;95592.03;;;9.08;77.89
45345;BME280;31078;48.304;11.896;2023-04-25T09:26:58;95594.19;;;8.94;75.77
45345;BME280;31078;48.304;11.896;2023-04-25T09:29:30;95600.44;;;8.85;82.71
45345;BME280;31078;48.304;11.896;2023-04-25T09:32:16;95605.81;;;8.30;87.28
45345;BME280;31078;48.304;11.896;2023-04-25T09:34:43;95604.22;;;7.77;85.05
45345;BME280;31078;48.304;11.896;2023-04-25T09:37:17;95607.91;;;7.64;87.60
45345;BME280;31078;48.304;11.896;2023-04-25T09:39:44;95605.19;;;7.81;88.25
45345;BME280;31078;48.304;11.896;2023-04-25T09:42:11;95600.41;;;8.47;88.20
45345;BME280;31078;48.304;11.896;2023-04-25T09:44:42;95605.84;;;8.94;84.31
45345;BME280;31078;48.304;11.896;2023-04-25T09:47:09;95604.41;;;9.26;84.01
45345;BME280;31078;48.304;11.896;2023-04-25T09:49:39;95607.94;;;9.56;82.12
45345;BME280;31078;48.304;11.896;2023-04-25T09:52:05;95607.16;;;9.77;75.78
45345;BME280;31078;48.304;11.896;2023-04-25T09:54:33;95602.53;;;9.98;73.80
45345;BME280;31078;48.304;11.896;2023-04-25T09:57:09;95604.25;;;9.82;77.32
45345;BME280;31078;48.304;11.896;2023-04-25T09:59:39;95599.59;;;9.82;77.16
45345;BME280;31078;48.304;11.896;2023-04-25T10:02:07;95586.78;;;10.58;73.82
45345;BME280;31078;48.304;11.896;2023-04-25T10:04:35;95599.41;;;10.62;66.35
45345;BME280;31078;48.304;11.896;2023-04-25T10:07:03;95592.03;;;10.75;68.92
45345;BME280;31078;48.304;11.896;2023-04-25T10:09:32;95593.03;;;10.58;67.25
45345;BME280;31078;48.304;11.896;2023-04-25T10:12:00;95589.53;;;10.25;66.41
45345;BME280;31078;48.304;11.896;2023-04-25T10:14:27;95585.25;;;10.15;66.99
45345;BME280;31078;48.304;11.896;2023-04-25T10:16:55;95582.00;;;10.22;66.58
45345;BME280;31078;48.304;11.896;2023-04-25T10:19:22;95586.25;;;10.10;61.70
45345;BME280;31078;48.304;11.896;2023-04-25T10:21:51;95582.75;;;9.89;65.65
45345;BME280;31078;48.304;11.896;2023-04-25T10:24:19;95594.41;;;9.89;71.00
45345;BME280;31078;48.304;11.896;2023-04-25T10:26:46;95588.34;;;9.72;68.27
45345;BME280;31078;48.304;11.896;2023-04-25T10:29:21;95587.66;;;9.75;68.59
45345;BME280;31078;48.304;11.896;2023-04-25T10:31:48;95587.75;;;9.87;71.18
45345;BME280;31078;48.304;11.896;2023-04-25T10:34:15;95591.00;;;10.55;75.00
45345;BME280;31078;48.304;11.896;2023-04-25T10:36:42;95593.66;;;11.01;67.91
45345;BME280;31078;48.304;11.896;2023-04-25T10:39:08;95589.66;;;10.74;64.00
45345;BME280;31078;48.304;11.896;2023-04-25T10:41:53;95584.34;;;10.77;68.37
45345;BME280;31078;48.304;11.896;2023-04-25T10:44:21;95590.88;;;10.52;66.10
45345;BME280;31078;48.304;11.896;2023-04-25T10:46:47;95593.06;;;10.16;63.65
45345;BME280;31078;48.304;11.896;2023-04-25T10:49:29;95583.88;;;10.30;70.16
45345;BME280;31078;48.304;11.896;2023-04-25T10:52:11;95586.31;;;9.81;75.60
45345;BME280;31078;48.304;11.896;2023-04-25T10:54:40;95587.03;;;9.19;77.88
45345;BME280;31078;48.304;11.896;2023-04-25T10:57:07;95587.13;;;9.01;80.42
45345;BME280;31078;48.304;11.896;2023-04-25T10:59:35;95591.53;;;9.14;82.08
45345;BME280;31078;48.304;11.896;2023-04-25T11:02:11;95587.56;;;9.41;84.29
45345;BME280;31078;48.304;11.896;2023-04-25T11:04:38;95586.31;;;9.81;79.96
45345;BME280;31078;48.304;11.896;2023-04-25T11:07:10;95590.03;;;10.39;78.91
45345;BME280;31078;48.304;11.896;2023-04-25T11:09:39;95585.63;;;10.92;71.54
45345;BME280;31078;48.304;11.896;2023-04-25T11:12:07;95592.75;;;10.84;67.28
45345;BME280;31078;48.304;11.896;2023-04-25T11:14:35;95589.31;;;10.30;66.08
45345;BME280;31078;48.304;11.896;2023-04-25T11:17:02;95606.81;;;9.57;72.56
45345;BME280;31078;48.304;11.896;2023-04-25T11:19:29;95626.56;;;8.43;79.00
45345;BME280;31078;48.304;11.896;2023-04-25T11:21:56;95637.97;;;7.36;89.55
45345;BME280;31078;48.304;11.896;2023-04-25T11:24:26;95636.13;;;7.14;94.98
45345;BME280;31078;48.304;11.896;2023-04-25T11:26:53;95642.59;;;6.96;95.87
45345;BME280;31078;48.304;11.896;2023-04-25T11:29:21;95657.94;;;6.78;94.41
45345;BME280;31078;48.304;11.896;2023-04-25T11:31:50;95661.78;;;6.10;91.28
45345;BME280;31078;48.304;11.896;2023-04-25T11:34:17;95680.63;;;5.10;92.21
45345;BME280;31078;48.304;11.896;2023-04-25T11:36:44;95682.91;;;4.75;99.86
45345;BME280;31078;48.304;11.896;2023-04-25T11:39:11;95672.41;;;4.87;100.00
45345;BME280;31078;48.304;11.896;2023-04-25T11:41:38;95674.94;;;4.97;100.00
45345;BME280;31078;48.304;11.896;2023-04-25T11:44:05;95673.31;;;5.10;100.00
45345;BME280;31078;48.304;11.896;2023-04-25T11:46:33;95676.53;;;5.26;100.00
45345;BME280;31078;48.304;11.896;2023-04-25T11:49:01;95689.81;;;5.36;100.00
45345;BME280;31078;48.304;11.896;2023-04-25T11:51:28;95696.91;;;5.46;100.00
45345;BME280;31078;48.304;11.896;2023-04-25T11:53:55;95700.50;;;5.41;100.00
45345;BME280;31078;48.304;11.896;2023-04-25T11:56:22;95705.09;;;5.27;100.00
45345;BME280;31078;48.304;11.896;2023-04-25T11:58:56;95701.53;;;5.18;100.00
45345;BME280;31078;48.304;11.896;2023-04-25T12:01:28;95699.94;;;5.17;100.00
45345;BME280;31078;48.304;11.896;2023-04-25T12:03:55;95699.41;;;5.15;100.00
45345;BME280;31078;48.304;11.896;2023-04-25T12:06:25;95710.13;;;5.20;100.00
45345;BME280;31078;48.304;11.896;2023-04-25T12:09:00;95700.91;;;5.21;100.00
45345;BME280;31078;48.304;11.896;2023-04-25T12:11:26;95701.44;;;5.23;100.00
45345;BME280;31078;48.304;11.896;2023-04-25T12:13:53;95707.72;;;5.32;100.00
45345;BME280;31078;48.304;11.896;2023-04-25T12:16:19;95709.13;;;5.43;100.00
45345;BME280;31078;48.304;11.896;2023-04-25T12:18:45;95710.31;;;5.65;100.00
45345;BME280;31078;48.304;11.896;2023-04-25T12:21:12;95710.59;;;5.77;100.00
45345;BME280;31078;48.304;11.896;2023-04-25T12:23:40;95709.69;;;5.95;100.00
45345;BME280;31078;48.304;11.896;2023-04-25T12:26:07;95710.66;;;5.99;100.00
45345;BME280;31078;48.304;11.896;2023-04-25T12:28:33;95725.47;;;5.88;100.00
45345;BME280;31078;48.304;11.896;2023-04-25T12:31:01;95721.50;;;5.72;100.00
45345;BME280;31078;48.304;11.896;2023-04-25T12:33:29;95719.13;;;5.57;100.00
45345;BME280;31078;48.304;11.896;2023-04-25T12:35:56;95721.50;;;5.58;100.00
45345;BME280;31078;48.304;11.896;2023-04-25T12:38:26;95730.03;;;5.65;100.00
45345;BME280;31078;48.304;11.896;2023-04-25T12:40:56;95727.69;;;5.72;100.00
45345;BME280;31078;48.304;11.896;2023-04-25T12:43:24;95729.50;;;5.91;100.00
45345;BME280;31078;48.304;11.896;2023-04-25T12:45:51;95729.25;;;6.15;100.00
45345;BME280;31078;48.304;11.896;2023-04-25T12:48:22;95729.31;;;6.37;100.00
45345;BME280;31078;48.304;11.896;2023-04-25T12:50:51;95730.41;;;6.59;100.00
45345;BME280;31078;48.304;11.896;2023-04-25T12:53:18;95734.91;;;6.63;100.00
45345;BME280;31078;48.304;11.896;2023-04-25T12:55:46;95742.72;;;6.65;100.00
45345;BME280;31078;48.304;11.896;2023-04-25T12:58:14;95739.25;;;6.73;100.00